sensor_id;sensor_type;location;lat;lon;timestamp;temperature;humidity
19483;DHT22;9882;51.166;6.992;2023-07-16T00:00:07;21.90;99.90
19483;DHT22;9882;51.166;6.992;2023-07-16T00:02:38;21.70;99.90
19483;DHT22;9882;51.166;6.992;2023-07-16T00:05:07;21.50;99.90
19483;DHT22;9882;51.166;6.992;2023-07-16T00:07:35;21.30;99.90
19483;DHT22;9882;51.166;6.992;2023-07-16T00:10:05;20.90;99.90
19483;DHT22;9882;51.166;6.992;2023-07-16T00:12:33;21.10;99.90
19483;DHT22;9882;51.166;6.992;2023-07-16T00:15:02;21.40;99.90
19483;DHT22;9882;51.166;6.992;2023-07-16T00:17:33;21.20;99.90
19483;DHT22;9882;51.166;6.992;2023-07-16T00:20:02;21.10;99.90
19483;DHT22;9882;51.166;6.992;2023-07-16T00:22:31;21.30;99.90
19483;DHT22;9882;51.166;6.992;2023-07-16T00:24:59;20.80;99.90
19483;DHT22;9882;51.166;6.992;2023-07-16T00:27:28;20.50;99.90
19483;DHT22;9882;51.166;6.992;2023-07-16T00:29:56;20.90;99.90
19483;DHT22;9882;51.166;6.992;2023-07-16T00:32:25;20.00;99.90
19483;DHT22;9882;51.166;6.992;2023-07-16T00:34:55;19.90;99.90
19483;DHT22;9882;51.166;6.992;2023-07-16T00:37:24;19.80;99.90
19483;DHT22;9882;51.166;6.992;2023-07-16T00:39:52;19.80;99.90
19483;DHT22;9882;51.166;6.992;2023-07-16T00:42:22;19.80;99.90
19483;DHT22;9882;51.166;6.992;2023-07-16T00:44:51;20.20;99.90
19483;DHT22;9882;51.166;6.992;2023-07-16T00:47:20;19.60;99.90
19483;DHT22;9882;51.166;6.992;2023-07-16T00:49:50;19.70;99.90
19483;DHT22;9882;51.166;6.992;2023-07-16T00:52:21;20.10;99.90
19483;DHT22;9882;51.166;6.992;2023-07-16T00:54:50;19.90;99.90
19483;DHT22;9882;51.166;6.992;2023-07-16T00:57:19;20.10;99.90
19483;DHT22;9882;51.166;6.992;2023-07-16T00:59:47;20.30;99.90
19483;DHT22;9882;51.166;6.992;2023-07-16T01:02:16;20.00;99.90
19483;DHT22;9882;51.166;6.992;2023-07-16T01:04:45;20.30;99.90
19483;DHT22;9882;51.166;6.992;2023-07-16T01:07:14;20.20;99.90
19483;DHT22;9882;51.166;6.992;2023-07-16T01:09:45;20.60;99.90
19483;DHT22;9882;51.166;6.992;2023-07-16T01:12:14;20.80;99.90
19483;DHT22;9882;51.166;6.992;2023-07-16T01:14:43;20.60;99.90
19483;DHT22;9882;51.166;6.992;2023-07-16T01:17:12;20.50;99.90
19483;DHT22;9882;51.166;6.992;2023-07-16T01:19:41;20.70;99.90
19483;DHT22;9882;51.166;6.992;2023-07-16T01:22:27;20.80;99.90
19483;DHT22;9882;51.166;6.992;2023-07-16T01:25:15;21.00;99.90
19483;DHT22;9882;51.166;6.992;2023-07-16T01:28:05;20.90;99.90
19483;DHT22;9882;51.166;6.992;2023-07-16T01:30:43;21.10;99.90
19483;DHT22;9882;51.166;6.992;2023-07-16T01:33:13;20.90;99.90
19483;DHT22;9882;51.166;6.992;2023-07-16T01:35:44;20.90;99.90
19483;DHT22;9882;51.166;6.992;2023-07-16T01:38:13;20.20;99.90
19483;DHT22;9882;51.166;6.992;2023-07-16T01:40:44;20.30;99.90
19483;DHT22;9882;51.166;6.992;2023-07-16T01:43:13;20.40;99.90
19483;DHT22;9882;51.166;6.992;2023-07-16T01:45:43;20.40;99.90
19483;DHT22;9882;51.166;6.992;2023-07-16T01:48:21;20.20;99.90
19483;DHT22;9882;51.166;6.992;2023-07-16T01:50:52;20.00;99.90
19483;DHT22;9882;51.166;6.992;2023-07-16T01:53:21;19.90;99.90
19483;DHT22;9882;51.166;6.992;2023-07-16T01:55:50;20.20;99.90
19483;DHT22;9882;51.166;6.992;2023-07-16T01:58:18;20.20;99.90
19483;DHT22;9882;51.166;6.992;2023-07-16T02:00:50;20.30;99.90
19483;DHT22;9882;51.166;6.992;2023-07-16T02:03:19;20.30;99.90
19483;DHT22;9882;51.166;6.992;2023-07-16T02:05:48;20.10;99.90
19483;DHT22;9882;51.166;6.992;2023-07-16T02:08:16;20.00;99.90
19483;DHT22;9882;51.166;6.992;2023-07-16T02:10:47;20.10;99.90
19483;DHT22;9882;51.166;6.992;2023-07-16T02:13:16;20.00;99.90
19483;DHT22;9882;51.166;6.992;2023-07-16T02:15:44;19.60;99.90
19483;DHT22;9882;51.166;6.992;2023-07-16T02:18:16;19.80;99.90
19483;DHT22;9882;51.166;6.992;2023-07-16T02:20:44;19.80;99.90
19483;DHT22;9882;51.166;6.992;2023-07-16T02:23:13;19.70;99.90
19483;DHT22;9882;51.166;6.992;2023-07-16T02:25:42;19.80;99.90
19483;DHT22;9882;51.166;6.992;2023-07-16T02:28:11;19.80;99.90
19483;DHT22;9882;51.166;6.992;2023-07-16T02:30:41;19.40;99.90
19483;DHT22;9882;51.166;6.992;2023-07-16T02:33:11;19.30;99.90
19483;DHT22;9882;51.166;6.992;2023-07-16T02:35:46;19.40;99.90
19483;DHT22;9882;51.166;6.992;2023-07-16T02:38:15;19.50;99.90
19483;DHT22;9882;51.166;6.992;2023-07-16T02:40:44;19.30;99.90
19483;DHT22;9882;51.166;6.992;2023-07-16T02:43:13;19.40;99.90
19483;DHT22;9882;51.166;6.992;2023-07-16T02:45:42;19.10;99.90
19483;DHT22;9882;51.166;6.992;2023-07-16T02:48:11;18.90;99.90
19483;DHT22;9882;51.166;6.992;2023-07-16T02:50:41;19.20;99.90
19483;DHT22;9882;51.166;6.992;2023-07-16T02:53:10;19.20;99.90
19483;DHT22;9882;51.166;6.992;2023-07-16T02:55:39;19.30;99.90
19483;DHT22;9882;51.166;6.992;2023-07-16T02:58:08;19.10;99.90
19483;DHT22;9882;51.166;6.992;2023-07-16T03:00:36;19.20;99.90
19483;DHT22;9882;51.166;6.992;2023-07-16T03:03:05;18.90;99.90
19483;DHT22;9882;51.166;6.992;2023-07-16T03:05:34;18.80;99.90
19483;DHT22;9882;51.166;6.992;2023-07-16T03:08:04;18.90;99.90
19483;DHT22;9882;51.166;6.992;2023-07-16T03:10:32;19.10;99.90
19483;DHT22;9882;51.166;6.992;2023-07-16T03:13:01;19.10;99.90
19483;DHT22;9882;51.166;6.992;2023-07-16T03:15:30;18.90;99.90
19483;DHT22;9882;51.166;6.992;2023-07-16T03:17:59;18.90;99.90
19483;DHT22;9882;51.166;6.992;2023-07-16T03:20:27;19.00;99.90
19483;DHT22;9882;51.166;6.992;2023-07-16T03:22:56;19.00;99.90
19483;DHT22;9882;51.166;6.992;2023-07-16T03:25:26;18.90;99.90
19483;DHT22;9882;51.166;6.992;2023-07-16T03:27:55;19.00;99.90
19483;DHT22;9882;51.166;6.992;2023-07-16T03:30:23;18.60;99.90
19483;DHT22;9882;51.166;6.992;2023-07-16T03:32:52;18.90;99.90
19483;DHT22;9882;51.166;6.992;2023-07-16T03:35:24;19.00;99.90
19483;DHT22;9882;51.166;6.992;2023-07-16T03:37:53;19.20;99.90
19483;DHT22;9882;51.166;6.992;2023-07-16T03:40:26;19.40;99.90
19483;DHT22;9882;51.166;6.992;2023-07-16T03:42:55;19.40;99.90
19483;DHT22;9882;51.166;6.992;2023-07-16T03:45:24;19.10;99.90
19483;DHT22;9882;51.166;6.992;2023-07-16T03:47:53;19.10;99.90
19483;DHT22;9882;51.166;6.992;2023-07-16T03:50:22;19.20;99.90
19483;DHT22;9882;51.166;6.992;2023-07-16T03:52:50;19.20;99.90
19483;DHT22;9882;51.166;6.992;2023-07-16T03:55:19;19.40;99.90
19483;DHT22;9882;51.166;6.992;2023-07-16T03:57:51;19.40;99.90
19483;DHT22;9882;51.166;6.992;2023-07-16T04:00:20;19.20;99.90
19483;DHT22;9882;51.166;6.992;2023-07-16T04:02:51;19.10;99.90
19483;DHT22;9882;51.166;6.992;2023-07-16T04:05:21;18.80;99.90
19483;DHT22;9882;51.166;6.992;2023-07-16T04:07:51;19.10;99.90
19483;DHT22;9882;51.166;6.992;2023-07-16T04:10:19;19.10;99.90
19483;DHT22;9882;51.166;6.992;2023-07-16T04:12:48;19.30;99.90
19483;DHT22;9882;51.166;6.992;2023-07-16T04:15:18;19.40;99.90
19483;DHT22;9882;51.166;6.992;2023-07-16T04:17:47;19.50;99.90
19483;DHT22;9882;51.166;6.992;2023-07-16T04:20:15;19.30;99.90
19483;DHT22;9882;51.166;6.992;2023-07-16T04:22:44;19.10;99.90
19483;DHT22;9882;51.166;6.992;2023-07-16T04:25:13;19.20;99.90
19483;DHT22;9882;51.166;6.992;2023-07-16T04:27:42;19.10;99.90
19483;DHT22;9882;51.166;6.992;2023-07-16T04:30:11;18.90;99.90
19483;DHT22;9882;51.166;6.992;2023-07-16T04:32:41;18.70;99.90
19483;DHT22;9882;51.166;6.992;2023-07-16T04:35:10;18.70;99.90
19483;DHT22;9882;51.166;6.992;2023-07-16T04:37:38;18.60;99.90
19483;DHT22;9882;51.166;6.992;2023-07-16T04:40:08;18.60;99.90
19483;DHT22;9882;51.166;6.992;2023-07-16T04:42:36;18.50;99.90
19483;DHT22;9882;51.166;6.992;2023-07-16T04:45:05;18.30;99.90
19483;DHT22;9882;51.166;6.992;2023-07-16T04:47:34;18.20;99.90
19483;DHT22;9882;51.166;6.992;2023-07-16T04:50:05;18.30;99.90
19483;DHT22;9882;51.166;6.992;2023-07-16T04:52:34;18.20;99.90
19483;DHT22;9882;51.166;6.992;2023-07-16T04:55:03;18.30;99.90
19483;DHT22;9882;51.166;6.992;2023-07-16T04:57:32;18.60;99.90
19483;DHT22;9882;51.166;6.992;2023-07-16T05:00:01;18.40;99.90
19483;DHT22;9882;51.166;6.992;2023-07-16T05:02:29;18.40;99.90
19483;DHT22;9882;51.166;6.992;2023-07-16T05:04:58;18.30;99.90
19483;DHT22;9882;51.166;6.992;2023-07-16T05:07:28;18.20;99.90
19483;DHT22;9882;51.166;6.992;2023-07-16T05:09:56;18.40;99.90
19483;DHT22;9882;51.166;6.992;2023-07-16T05:12:24;18.20;99.90
19483;DHT22;9882;51.166;6.992;2023-07-16T05:14:53;18.10;99.90
19483;DHT22;9882;51.166;6.992;2023-07-16T05:17:21;18.10;99.90
19483;DHT22;9882;51.166;6.992;2023-07-16T05:19:52;18.30;99.90
19483;DHT22;9882;51.166;6.992;2023-07-16T05:22:21;18.20;99.90
19483;DHT22;9882;51.166;6.992;2023-07-16T05:24:51;18.30;99.90
19483;DHT22;9882;51.166;6.992;2023-07-16T05:27:19;18.30;99.90
19483;DHT22;9882;51.166;6.992;2023-07-16T05:29:48;18.30;99.90
19483;DHT22;9882;51.166;6.992;2023-07-16T05:32:16;18.40;99.90
19483;DHT22;9882;51.166;6.992;2023-07-16T05:34:45;18.40;99.90
19483;DHT22;9882;51.166;6.992;2023-07-16T05:37:14;18.40;99.90
19483;DHT22;9882;51.166;6.992;2023-07-16T05:39:42;18.30;99.90
19483;DHT22;9882;51.166;6.992;2023-07-16T05:42:12;18.30;99.90
19483;DHT22;9882;51.166;6.992;2023-07-16T05:44:40;18.20;99.90
19483;DHT22;9882;51.166;6.992;2023-07-16T05:47:11;18.30;99.90
19483;DHT22;9882;51.166;6.992;2023-07-16T05:49:39;18.30;99.90
19483;DHT22;9882;51.166;6.992;2023-07-16T05:52:08;18.30;99.90
19483;DHT22;9882;51.166;6.992;2023-07-16T05:54:37;18.20;99.90
19483;DHT22;9882;51.166;6.992;2023-07-16T05:57:06;18.20;99.90
19483;DHT22;9882;51.166;6.992;2023-07-16T05:59:36;18.20;99.90
19483;DHT22;9882;51.166;6.992;2023-07-16T06:02:05;18.40;99.90
19483;DHT22;9882;51.166;6.992;2023-07-16T06:04:34;18.30;99.90
19483;DHT22;9882;51.166;6.992;2023-07-16T06:07:03;18.30;99.90
19483;DHT22;9882;51.166;6.992;2023-07-16T06:09:31;18.30;99.90
19483;DHT22;9882;51.166;6.992;2023-07-16T06:12:00;18.30;99.90
19483;DHT22;9882;51.166;6.992;2023-07-16T06:14:28;18.40;99.90
19483;DHT22;9882;51.166;6.992;2023-07-16T06:16:58;18.40;99.90
19483;DHT22;9882;51.166;6.992;2023-07-16T06:19:27;18.40;99.90
19483;DHT22;9882;51.166;6.992;2023-07-16T06:21:56;18.60;99.90
19483;DHT22;9882;51.166;6.992;2023-07-16T06:24:25;18.50;99.90
19483;DHT22;9882;51.166;6.992;2023-07-16T06:26:53;18.30;99.90
19483;DHT22;9882;51.166;6.992;2023-07-16T06:29:22;18.40;99.90
19483;DHT22;9882;51.166;6.992;2023-07-16T06:31:58;18.40;99.90
19483;DHT22;9882;51.166;6.992;2023-07-16T06:34:27;18.50;99.90
19483;DHT22;9882;51.166;6.992;2023-07-16T06:36:56;18.50;99.90
19483;DHT22;9882;51.166;6.992;2023-07-16T06:39:24;18.40;99.90
19483;DHT22;9882;51.166;6.992;2023-07-16T06:41:53;18.40;99.90
19483;DHT22;9882;51.166;6.992;2023-07-16T06:44:22;18.30;99.90
19483;DHT22;9882;51.166;6.992;2023-07-16T06:46:51;18.30;99.90
19483;DHT22;9882;51.166;6.992;2023-07-16T06:49:22;18.40;99.90
19483;DHT22;9882;51.166;6.992;2023-07-16T06:51:50;18.30;99.90
19483;DHT22;9882;51.166;6.992;2023-07-16T06:54:19;18.40;99.90
19483;DHT22;9882;51.166;6.992;2023-07-16T06:56:47;18.40;99.90
19483;DHT22;9882;51.166;6.992;2023-07-16T06:59:16;18.50;99.90
19483;DHT22;9882;51.166;6.992;2023-07-16T07:01:44;18.30;99.90
19483;DHT22;9882;51.166;6.992;2023-07-16T07:04:13;18.40;99.90
19483;DHT22;9882;51.166;6.992;2023-07-16T07:06:43;18.40;99.90
19483;DHT22;9882;51.166;6.992;2023-07-16T07:09:11;18.50;99.90
19483;DHT22;9882;51.166;6.992;2023-07-16T07:11:40;18.50;99.90
19483;DHT22;9882;51.166;6.992;2023-07-16T07:14:08;18.50;99.90
19483;DHT22;9882;51.166;6.992;2023-07-16T07:16:38;18.60;99.90
19483;DHT22;9882;51.166;6.992;2023-07-16T07:19:08;18.60;99.90
19483;DHT22;9882;51.166;6.992;2023-07-16T07:21:36;18.60;99.90
19483;DHT22;9882;51.166;6.992;2023-07-16T07:24:07;18.80;99.90
19483;DHT22;9882;51.166;6.992;2023-07-16T07:26:35;18.80;99.90
19483;DHT22;9882;51.166;6.992;2023-07-16T07:29:04;18.80;99.90
19483;DHT22;9882;51.166;6.992;2023-07-16T07:31:32;18.70;99.90
19483;DHT22;9882;51.166;6.992;2023-07-16T07:34:01;18.80;99.90
19483;DHT22;9882;51.166;6.992;2023-07-16T07:36:29;18.90;99.90
19483;DHT22;9882;51.166;6.992;2023-07-16T07:38:58;18.90;99.90
19483;DHT22;9882;51.166;6.992;2023-07-16T07:41:28;18.80;99.90
19483;DHT22;9882;51.166;6.992;2023-07-16T07:43:56;18.80;99.90
19483;DHT22;9882;51.166;6.992;2023-07-16T07:46:25;18.80;99.90
19483;DHT22;9882;51.166;6.992;2023-07-16T07:48:54;18.80;99.90
19483;DHT22;9882;51.166;6.992;2023-07-16T07:51:22;18.80;99.90
19483;DHT22;9882;51.166;6.992;2023-07-16T07:53:51;18.90;99.90
19483;DHT22;9882;51.166;6.992;2023-07-16T07:56:19;19.00;99.90
19483;DHT22;9882;51.166;6.992;2023-07-16T07:58:49;19.00;99.90
19483;DHT22;9882;51.166;6.992;2023-07-16T08:01:21;18.90;99.90
19483;DHT22;9882;51.166;6.992;2023-07-16T08:03:50;19.00;99.90
19483;DHT22;9882;51.166;6.992;2023-07-16T08:06:18;19.10;99.90
19483;DHT22;9882;51.166;6.992;2023-07-16T08:08:47;19.00;99.90
19483;DHT22;9882;51.166;6.992;2023-07-16T08:11:15;19.00;99.90
19483;DHT22;9882;51.166;6.992;2023-07-16T08:13:44;19.10;99.90
19483;DHT22;9882;51.166;6.992;2023-07-16T08:16:14;19.20;99.90
19483;DHT22;9882;51.166;6.992;2023-07-16T08:18:43;19.40;99.90
19483;DHT22;9882;51.166;6.992;2023-07-16T08:21:11;19.60;99.90
19483;DHT22;9882;51.166;6.992;2023-07-16T08:23:47;19.40;99.90
19483;DHT22;9882;51.166;6.992;2023-07-16T08:26:16;19.50;99.90
19483;DHT22;9882;51.166;6.992;2023-07-16T08:28:45;19.50;99.90
19483;DHT22;9882;51.166;6.992;2023-07-16T08:31:14;19.50;99.90
19483;DHT22;9882;51.166;6.992;2023-07-16T08:33:43;19.50;99.90
19483;DHT22;9882;51.166;6.992;2023-07-16T08:36:13;19.60;99.90
19483;DHT22;9882;51.166;6.992;2023-07-16T08:38:42;19.70;99.90
19483;DHT22;9882;51.166;6.992;2023-07-16T08:41:11;19.90;99.90
19483;DHT22;9882;51.166;6.992;2023-07-16T08:43:40;19.80;99.90
19483;DHT22;9882;51.166;6.992;2023-07-16T08:46:08;19.90;99.90
19483;DHT22;9882;51.166;6.992;2023-07-16T08:48:38;20.00;99.90
19483;DHT22;9882;51.166;6.992;2023-07-16T08:51:09;20.00;99.90
19483;DHT22;9882;51.166;6.992;2023-07-16T08:53:39;20.00;99.90
19483;DHT22;9882;51.166;6.992;2023-07-16T08:56:07;20.00;99.90
19483;DHT22;9882;51.166;6.992;2023-07-16T08:58:36;20.10;99.90
19483;DHT22;9882;51.166;6.992;2023-07-16T09:01:06;20.20;99.90
19483;DHT22;9882;51.166;6.992;2023-07-16T09:03:35;20.20;99.90
19483;DHT22;9882;51.166;6.992;2023-07-16T09:06:05;20.30;99.90
19483;DHT22;9882;51.166;6.992;2023-07-16T09:08:34;20.40;99.90
19483;DHT22;9882;51.166;6.992;2023-07-16T09:11:02;20.30;99.90
19483;DHT22;9882;51.166;6.992;2023-07-16T09:13:31;20.30;99.90
19483;DHT22;9882;51.166;6.992;2023-07-16T09:15:59;20.40;99.90
19483;DHT22;9882;51.166;6.992;2023-07-16T09:18:28;20.40;99.90
19483;DHT22;9882;51.166;6.992;2023-07-16T09:20:57;20.50;99.90
19483;DHT22;9882;51.166;6.992;2023-07-16T09:23:30;20.60;99.90
19483;DHT22;9882;51.166;6.992;2023-07-16T09:25:58;20.70;99.90
19483;DHT22;9882;51.166;6.992;2023-07-16T09:28:27;20.70;99.90
19483;DHT22;9882;51.166;6.992;2023-07-16T09:30:55;20.80;99.90
19483;DHT22;9882;51.166;6.992;2023-07-16T09:33:26;20.60;99.90
19483;DHT22;9882;51.166;6.992;2023-07-16T09:35:55;20.70;99.90
19483;DHT22;9882;51.166;6.992;2023-07-16T09:38:24;20.90;99.90
19483;DHT22;9882;51.166;6.992;2023-07-16T09:40:59;21.00;99.90
19483;DHT22;9882;51.166;6.992;2023-07-16T09:43:28;21.10;99.90
19483;DHT22;9882;51.166;6.992;2023-07-16T09:45:57;21.30;99.90
19483;DHT22;9882;51.166;6.992;2023-07-16T09:48:25;21.30;99.90
19483;DHT22;9882;51.166;6.992;2023-07-16T09:50:54;21.50;99.90
19483;DHT22;9882;51.166;6.992;2023-07-16T09:53:24;21.20;99.90
19483;DHT22;9882;51.166;6.992;2023-07-16T09:55:55;21.20;99.90
19483;DHT22;9882;51.166;6.992;2023-07-16T09:58:24;21.40;99.90
19483;DHT22;9882;51.166;6.992;2023-07-16T10:00:54;21.30;99.90
19483;DHT22;9882;51.166;6.992;2023-07-16T10:03:23;21.00;99.90
19483;DHT22;9882;51.166;6.992;2023-07-16T10:05:51;21.00;99.90
19483;DHT22;9882;51.166;6.992;2023-07-16T10:08:20;21.10;99.90
19483;DHT22;9882;51.166;6.992;2023-07-16T10:10:54;21.10;99.90
19483;DHT22;9882;51.166;6.992;2023-07-16T10:13:26;21.20;99.90
19483;DHT22;9882;51.166;6.992;2023-07-16T10:15:57;21.10;99.90
19483;DHT22;9882;51.166;6.992;2023-07-16T10:18:26;21.30;99.90
19483;DHT22;9882;51.166;6.992;2023-07-16T10:21:03;21.50;99.90
19483;DHT22;9882;51.166;6.992;2023-07-16T10:23:39;21.60;99.90
19483;DHT22;9882;51.166;6.992;2023-07-16T10:26:11;21.40;99.90
19483;DHT22;9882;51.166;6.992;2023-07-16T10:28:41;21.20;99.90
19483;DHT22;9882;51.166;6.992;2023-07-16T10:31:17;21.20;99.90
19483;DHT22;9882;51.166;6.992;2023-07-16T10:33:58;21.40;99.90
19483;DHT22;9882;51.166;6.992;2023-07-16T10:36:26;21.10;99.90
19483;DHT22;9882;51.166;6.992;2023-07-16T10:39:01;21.30;99.90
19483;DHT22;9882;51.166;6.992;2023-07-16T10:41:32;21.30;99.90
19483;DHT22;9882;51.166;6.992;2023-07-16T10:44:01;21.50;99.90
19483;DHT22;9882;51.166;6.992;2023-07-16T10:46:31;21.60;99.90
19483;DHT22;9882;51.166;6.992;2023-07-16T10:49:00;21.60;99.90
19483;DHT22;9882;51.166;6.992;2023-07-16T10:51:29;21.70;99.90
19483;DHT22;9882;51.166;6.992;2023-07-16T10:53:58;21.60;99.90
19483;DHT22;9882;51.166;6.992;2023-07-16T10:56:26;21.80;99.90
19483;DHT22;9882;51.166;6.992;2023-07-16T10:58:57;21.40;99.90
19483;DHT22;9882;51.166;6.992;2023-07-16T11:01:28;21.60;99.90
19483;DHT22;9882;51.166;6.992;2023-07-16T11:04:00;21.80;99.90
19483;DHT22;9882;51.166;6.992;2023-07-16T11:06:29;21.90;99.90
19483;DHT22;9882;51.166;6.992;2023-07-16T11:09:06;21.80;99.90
19483;DHT22;9882;51.166;6.992;2023-07-16T11:11:35;22.10;99.90
19483;DHT22;9882;51.166;6.992;2023-07-16T11:14:06;22.30;99.90
19483;DHT22;9882;51.166;6.992;2023-07-16T11:16:36;22.60;99.90
19483;DHT22;9882;51.166;6.992;2023-07-16T11:19:05;22.60;99.90
19483;DHT22;9882;51.166;6.992;2023-07-16T11:21:34;22.30;99.90
19483;DHT22;9882;51.166;6.992;2023-07-16T11:24:09;22.00;99.90
19483;DHT22;9882;51.166;6.992;2023-07-16T11:26:38;22.10;99.90
19483;DHT22;9882;51.166;6.992;2023-07-16T11:29:14;21.80;99.90
19483;DHT22;9882;51.166;6.992;2023-07-16T11:31:42;22.00;99.90
19483;DHT22;9882;51.166;6.992;2023-07-16T11:34:13;22.30;99.90
19483;DHT22;9882;51.166;6.992;2023-07-16T11:36:42;22.50;99.90
19483;DHT22;9882;51.166;6.992;2023-07-16T11:39:11;22.30;99.90
19483;DHT22;9882;51.166;6.992;2023-07-16T11:41:40;22.30;99.90
19483;DHT22;9882;51.166;6.992;2023-07-16T11:44:08;22.40;99.90
19483;DHT22;9882;51.166;6.992;2023-07-16T11:46:38;22.50;99.90
19483;DHT22;9882;51.166;6.992;2023-07-16T11:49:07;22.80;99.90
19483;DHT22;9882;51.166;6.992;2023-07-16T11:51:35;22.90;99.90
19483;DHT22;9882;51.166;6.992;2023-07-16T11:54:04;23.10;99.90
19483;DHT22;9882;51.166;6.992;2023-07-16T11:56:32;22.90;99.90
19483;DHT22;9882;51.166;6.992;2023-07-16T11:59:01;22.90;99.90
19483;DHT22;9882;51.166;6.992;2023-07-16T12:01:30;23.00;99.90
19483;DHT22;9882;51.166;6.992;2023-07-16T12:04:00;23.10;99.90
19483;DHT22;9882;51.166;6.992;2023-07-16T12:06:28;23.20;99.90
19483;DHT22;9882;51.166;6.992;2023-07-16T12:08:57;23.50;99.90
19483;DHT22;9882;51.166;6.992;2023-07-16T12:11:26;23.30;99.90
19483;DHT22;9882;51.166;6.992;2023-07-16T12:13:54;23.60;99.90
19483;DHT22;9882;51.166;6.992;2023-07-16T12:16:23;23.60;99.90
19483;DHT22;9882;51.166;6.992;2023-07-16T12:18:51;23.70;99.90
19483;DHT22;9882;51.166;6.992;2023-07-16T12:21:21;23.80;99.90
19483;DHT22;9882;51.166;6.992;2023-07-16T12:23:50;23.90;99.90
19483;DHT22;9882;51.166;6.992;2023-07-16T12:26:19;23.80;99.90
19483;DHT22;9882;51.166;6.992;2023-07-16T12:28:47;23.70;99.90
19483;DHT22;9882;51.166;6.992;2023-07-16T12:31:16;23.30;99.90
19483;DHT22;9882;51.166;6.992;2023-07-16T12:33:45;23.30;99.90
19483;DHT22;9882;51.166;6.992;2023-07-16T12:36:14;23.20;99.90
19483;DHT22;9882;51.166;6.992;2023-07-16T12:38:44;23.40;99.90
19483;DHT22;9882;51.166;6.992;2023-07-16T12:41:13;23.20;99.90
19483;DHT22;9882;51.166;6.992;2023-07-16T12:43:43;23.20;99.90
19483;DHT22;9882;51.166;6.992;2023-07-16T12:46:12;23.50;99.90
19483;DHT22;9882;51.166;6.992;2023-07-16T12:48:40;23.50;99.90
19483;DHT22;9882;51.166;6.992;2023-07-16T12:51:09;23.50;99.90
19483;DHT22;9882;51.166;6.992;2023-07-16T12:53:37;23.70;99.90
19483;DHT22;9882;51.166;6.992;2023-07-16T12:56:08;23.90;99.90
19483;DHT22;9882;51.166;6.992;2023-07-16T12:58:36;23.80;99.90
19483;DHT22;9882;51.166;6.992;2023-07-16T13:01:05;24.00;99.90
19483;DHT22;9882;51.166;6.992;2023-07-16T13:03:35;24.00;99.90
19483;DHT22;9882;51.166;6.992;2023-07-16T13:06:04;24.20;99.90
19483;DHT22;9882;51.166;6.992;2023-07-16T13:08:32;23.90;99.90
19483;DHT22;9882;51.166;6.992;2023-07-16T13:11:02;24.30;99.90
19483;DHT22;9882;51.166;6.992;2023-07-16T13:13:32;24.40;99.90
19483;DHT22;9882;51.166;6.992;2023-07-16T13:16:00;24.20;99.90
19483;DHT22;9882;51.166;6.992;2023-07-16T13:18:29;24.50;99.90
19483;DHT22;9882;51.166;6.992;2023-07-16T13:20:58;24.60;99.90
19483;DHT22;9882;51.166;6.992;2023-07-16T13:23:26;24.50;99.90
19483;DHT22;9882;51.166;6.992;2023-07-16T13:25:55;24.30;99.90
19483;DHT22;9882;51.166;6.992;2023-07-16T13:28:24;24.80;99.90
19483;DHT22;9882;51.166;6.992;2023-07-16T13:30:54;24.50;99.90
19483;DHT22;9882;51.166;6.992;2023-07-16T13:33:22;24.70;99.90
19483;DHT22;9882;51.166;6.992;2023-07-16T13:35:51;25.10;99.90
19483;DHT22;9882;51.166;6.992;2023-07-16T13:38:20;25.50;99.90
19483;DHT22;9882;51.166;6.992;2023-07-16T13:40:48;26.00;99.90
19483;DHT22;9882;51.166;6.992;2023-07-16T13:43:17;26.50;99.90
19483;DHT22;9882;51.166;6.992;2023-07-16T13:45:45;25.80;99.90
19483;DHT22;9882;51.166;6.992;2023-07-16T13:48:16;25.10;99.40
19483;DHT22;9882;51.166;6.992;2023-07-16T13:50:44;25.40;99.90
19483;DHT22;9882;51.166;6.992;2023-07-16T13:53:13;25.70;99.90
19483;DHT22;9882;51.166;6.992;2023-07-16T13:55:42;26.10;99.90
19483;DHT22;9882;51.166;6.992;2023-07-16T13:58:11;26.60;99.90
19483;DHT22;9882;51.166;6.992;2023-07-16T14:00:42;26.40;99.90
19483;DHT22;9882;51.166;6.992;2023-07-16T14:03:10;26.50;99.90
19483;DHT22;9882;51.166;6.992;2023-07-16T14:05:40;26.50;98.50
19483;DHT22;9882;51.166;6.992;2023-07-16T14:08:09;26.50;99.90
19483;DHT22;9882;51.166;6.992;2023-07-16T14:10:37;25.90;99.70
19483;DHT22;9882;51.166;6.992;2023-07-16T14:13:06;26.00;99.90
19483;DHT22;9882;51.166;6.992;2023-07-16T14:15:35;25.60;99.90
19483;DHT22;9882;51.166;6.992;2023-07-16T14:18:03;25.60;99.90
19483;DHT22;9882;51.166;6.992;2023-07-16T14:20:32;25.80;99.90
19483;DHT22;9882;51.166;6.992;2023-07-16T14:23:02;25.40;99.90
19483;DHT22;9882;51.166;6.992;2023-07-16T14:25:30;25.40;99.90
19483;DHT22;9882;51.166;6.992;2023-07-16T14:27:59;25.00;99.90
19483;DHT22;9882;51.166;6.992;2023-07-16T14:30:28;26.10;99.90
19483;DHT22;9882;51.166;6.992;2023-07-16T14:32:56;25.90;98.40
19483;DHT22;9882;51.166;6.992;2023-07-16T14:35:26;25.50;99.90
19483;DHT22;9882;51.166;6.992;2023-07-16T14:38:02;25.80;99.90
19483;DHT22;9882;51.166;6.992;2023-07-16T14:40:31;25.40;99.90
19483;DHT22;9882;51.166;6.992;2023-07-16T14:43:00;24.90;99.90
19483;DHT22;9882;51.166;6.992;2023-07-16T14:45:28;24.90;99.90
19483;DHT22;9882;51.166;6.992;2023-07-16T14:47:57;24.60;99.90
19483;DHT22;9882;51.166;6.992;2023-07-16T14:50:26;24.50;99.90
19483;DHT22;9882;51.166;6.992;2023-07-16T14:52:54;24.90;99.90
19483;DHT22;9882;51.166;6.992;2023-07-16T14:55:24;24.70;99.90
19483;DHT22;9882;51.166;6.992;2023-07-16T14:57:53;25.10;99.90
19483;DHT22;9882;51.166;6.992;2023-07-16T15:00:21;25.20;99.90
19483;DHT22;9882;51.166;6.992;2023-07-16T15:02:50;25.20;99.90
19483;DHT22;9882;51.166;6.992;2023-07-16T15:05:18;25.40;99.90
19483;DHT22;9882;51.166;6.992;2023-07-16T15:07:47;24.60;99.90
19483;DHT22;9882;51.166;6.992;2023-07-16T15:10:16;24.50;99.90
19483;DHT22;9882;51.166;6.992;2023-07-16T15:12:45;24.30;99.90
19483;DHT22;9882;51.166;6.992;2023-07-16T15:15:14;24.30;99.90
19483;DHT22;9882;51.166;6.992;2023-07-16T15:17:43;24.50;99.90
19483;DHT22;9882;51.166;6.992;2023-07-16T15:20:12;24.40;99.90
19483;DHT22;9882;51.166;6.992;2023-07-16T15:22:40;24.80;99.90
19483;DHT22;9882;51.166;6.992;2023-07-16T15:25:09;24.90;99.90
19483;DHT22;9882;51.166;6.992;2023-07-16T15:27:39;25.00;99.90
19483;DHT22;9882;51.166;6.992;2023-07-16T15:30:10;24.50;99.90
19483;DHT22;9882;51.166;6.992;2023-07-16T15:32:40;24.50;99.90
19483;DHT22;9882;51.166;6.992;2023-07-16T15:35:08;23.90;99.90
19483;DHT22;9882;51.166;6.992;2023-07-16T15:37:37;24.30;99.90
19483;DHT22;9882;51.166;6.992;2023-07-16T15:40:13;24.70;99.90
19483;DHT22;9882;51.166;6.992;2023-07-16T15:42:42;24.40;99.90
19483;DHT22;9882;51.166;6.992;2023-07-16T15:45:12;25.30;99.90
19483;DHT22;9882;51.166;6.992;2023-07-16T15:47:43;25.40;99.90
19483;DHT22;9882;51.166;6.992;2023-07-16T15:50:12;25.40;99.90
19483;DHT22;9882;51.166;6.992;2023-07-16T15:52:41;25.70;99.90
19483;DHT22;9882;51.166;6.992;2023-07-16T15:55:09;26.40;99.90
19483;DHT22;9882;51.166;6.992;2023-07-16T15:57:38;26.00;99.90